createdAt,value
2022-08-17T00:20:34.829Z,20.40
2022-08-17T04:29:48.684Z,19.80
2022-08-17T11:56:03.435Z,34.50
2022-08-17T13:10:48.325Z,39.30
2022-08-17T14:00:23.719Z,39.70
2022-08-17T14:07:38.536Z,38.60
2022-08-17T14:47:28.752Z,38.70
2022-08-17T15:05:27.626Z,40.00
2022-08-17T15:08:54.085Z,39.70
2022-08-17T15:19:47.884Z,40.10
2022-08-17T15:30:24.169Z,38.40
2022-08-17T15:37:00.091Z,38.80
2022-08-17T15:40:37.117Z,40.60
2022-08-17T15:54:48.266Z,40.30
2022-08-17T16:05:26.450Z,39.10
2022-08-17T16:12:09.440Z,38.30
2022-08-17T16:22:42.295Z,38.60
2022-08-17T16:25:57.164Z,38.00
2022-08-17T16:35:27.353Z,35.80
2022-08-17T16:38:26.982Z,35.20
2022-08-17T16:41:20.299Z,35.00
2022-08-17T16:47:50.692Z,34.30
2022-08-17T16:51:03.543Z,34.00
2022-08-17T16:54:07.716Z,34.30
2022-08-17T16:57:10.174Z,34.80
2022-08-17T17:00:02.306Z,36.00
2022-08-17T17:03:25.774Z,36.80
2022-08-17T17:09:51.489Z,35.50
2022-08-17T17:13:03.812Z,34.60
2022-08-17T17:16:12.321Z,34.10
2022-08-17T17:19:10.072Z,33.70
2022-08-17T17:22:04.420Z,33.50
2022-08-17T17:25:05.254Z,33.50
2022-08-17T17:28:13.313Z,33.40
2022-08-17T17:31:26.031Z,33.20
2022-08-17T17:34:41.998Z,33.10
2022-08-17T17:37:38.814Z,33.00
2022-08-17T17:40:35.788Z,33.20
2022-08-17T17:43:38.251Z,33.00
2022-08-17T17:46:27.114Z,32.60
2022-08-17T17:49:31.142Z,32.30
2022-08-17T17:52:26.897Z,32.00
2022-08-17T17:55:27.365Z,31.70
2022-08-17T17:58:38.757Z,31.50
2022-08-17T18:01:35.230Z,31.30
2022-08-17T18:04:32.775Z,31.20
2022-08-17T18:07:36.738Z,31.00
2022-08-17T18:10:43.452Z,30.80
2022-08-17T18:13:48.269Z,30.70
2022-08-17T18:16:41.835Z,30.60
2022-08-17T18:19:42.294Z,30.40
2022-08-17T18:22:33.760Z,30.30
2022-08-17T18:25:50.566Z,30.10
2022-08-17T18:28:49.578Z,29.90
2022-08-17T18:31:39.019Z,29.80
2022-08-17T18:34:47.032Z,29.60
2022-08-17T18:37:50.287Z,29.50
2022-08-17T18:41:09.384Z,29.40
2022-08-17T18:44:06.627Z,29.20
2022-08-17T18:47:13.789Z,29.10
2022-08-17T18:50:17.175Z,29.10
2022-08-17T18:53:07.366Z,29.00
2022-08-17T18:55:56.577Z,28.90
2022-08-17T18:58:56.021Z,28.80
2022-08-17T19:01:54.687Z,28.80
2022-08-17T19:04:55.964Z,28.70
2022-08-17T19:08:02.343Z,28.70
2022-08-17T19:10:53.219Z,28.60
2022-08-17T19:13:35.765Z,28.50
2022-08-17T19:16:48.006Z,28.40
2022-08-17T19:23:21.760Z,28.30
2022-08-17T19:26:50.927Z,28.20
2022-08-17T19:29:22.300Z,28.00
2022-08-17T19:32:47.239Z,27.90
2022-08-17T19:35:29.876Z,27.80
2022-08-17T19:38:30.590Z,27.70
2022-08-17T19:41:32.530Z,27.60
2022-08-17T19:44:41.300Z,27.40
2022-08-17T19:47:54.168Z,27.30
2022-08-17T19:50:58.789Z,27.10
2022-08-17T19:54:09.309Z,27.00
2022-08-17T19:57:03.101Z,26.80
2022-08-17T20:00:08.180Z,26.70
2022-08-17T20:03:16.340Z,26.60
2022-08-17T20:09:34.251Z,26.50
2022-08-17T20:12:39.406Z,26.60
2022-08-17T20:15:33.958Z,26.50
2022-08-17T20:18:44.061Z,26.50
2022-08-17T20:21:44.565Z,26.30
2022-08-17T20:24:42.504Z,26.20
2022-08-17T20:28:17.780Z,26.10
2022-08-17T20:31:30.981Z,26.10
2022-08-17T20:34:46.892Z,25.90
2022-08-17T20:37:59.305Z,25.80
2022-08-17T20:41:16.382Z,25.70
2022-08-17T20:44:23.850Z,25.70
2022-08-17T20:51:11.680Z,25.50
2022-08-17T20:58:01.274Z,25.60
2022-08-17T21:01:04.478Z,25.60
2022-08-17T21:04:16.929Z,25.60
2022-08-17T21:07:51.108Z,25.50
2022-08-17T21:11:08.854Z,25.40
2022-08-17T21:14:15.784Z,25.30
2022-08-17T21:17:32.167Z,25.20
2022-08-17T21:20:59.160Z,25.10
2022-08-17T21:24:11.751Z,25.00
2022-08-17T21:27:12.171Z,25.00
2022-08-17T21:30:27.096Z,24.80
2022-08-17T21:33:42.838Z,24.60
2022-08-17T21:37:00.353Z,24.50
2022-08-17T21:47:08.308Z,24.30
2022-08-17T21:50:15.030Z,24.30
2022-08-17T21:53:33.029Z,24.30
2022-08-17T21:56:47.084Z,24.30
2022-08-17T22:00:42.494Z,24.30
2022-08-17T22:15:17.975Z,24.00
2022-08-17T22:18:36.346Z,24.00
2022-08-17T22:21:46.738Z,24.10
2022-08-17T22:25:06.739Z,24.10
2022-08-17T22:28:53.180Z,23.90
2022-08-17T22:31:45.803Z,23.80
2022-08-17T22:34:46.189Z,23.80
2022-08-17T22:37:57.990Z,23.70
2022-08-17T22:41:11.500Z,23.80
2022-08-17T22:47:47.333Z,23.70
2022-08-17T22:51:21.731Z,23.80
2022-08-17T23:08:21.797Z,23.50
2022-08-17T23:12:00.719Z,23.50
2022-08-17T23:15:00.769Z,23.50
2022-08-17T23:21:43.458Z,23.40
2022-08-17T23:25:06.842Z,23.30
2022-08-17T23:28:20.769Z,23.10
